sensor_id;sensor_type;location;lat;lon;timestamp;pressure;altitude;pressure_sealevel;temperature;humidity
53619;BME280;68717;53.040;18.488;2023-09-19T00:00:06;100313.31;;;22.57;100.00
53619;BME280;68717;53.040;18.488;2023-09-19T00:00:25;100316.28;;;22.56;100.00
53619;BME280;68717;53.040;18.488;2023-09-19T00:01:00;100321.13;;;22.54;100.00
53619;BME280;68717;53.040;18.488;2023-09-19T00:01:24;100323.88;;;22.54;100.00
53619;BME280;68717;53.040;18.488;2023-09-19T00:01:37;100316.72;;;22.53;100.00
53619;BME280;68717;53.040;18.488;2023-09-19T00:01:49;100319.44;;;22.53;100.00
53619;BME280;68717;53.040;18.488;2023-09-19T00:02:02;100316.72;;;22.53;100.00
53619;BME280;68717;53.040;18.488;2023-09-19T00:02:17;100325.75;;;22.53;100.00
53619;BME280;68717;53.040;18.488;2023-09-19T00:02:31;100327.66;;;22.53;100.00
53619;BME280;68717;53.040;18.488;2023-09-19T00:02:46;100333.09;;;22.53;100.00
53619;BME280;68717;53.040;18.488;2023-09-19T00:02:59;100318.63;;;22.52;100.00
53619;BME280;68717;53.040;18.488;2023-09-19T00:03:13;100319.44;;;22.53;100.00
53619;BME280;68717;53.040;18.488;2023-09-19T00:03:26;100328.47;;;22.53;100.00
53619;BME280;68717;53.040;18.488;2023-09-19T00:03:38;100323.00;;;22.53;100.00
53619;BME280;68717;53.040;18.488;2023-09-19T00:03:52;100322.19;;;22.53;100.00
53619;BME280;68717;53.040;18.488;2023-09-19T00:04:05;100330.38;;;22.53;100.00
53619;BME280;68717;53.040;18.488;2023-09-19T00:04:22;100323.25;;;22.52;100.00
53619;BME280;68717;53.040;18.488;2023-09-19T00:04:41;100326.00;;;22.52;100.00
53619;BME280;68717;53.040;18.488;2023-09-19T00:04:55;100326.00;;;22.52;100.00
53619;BME280;68717;53.040;18.488;2023-09-19T00:05:08;100324.28;;;22.51;100.00
53619;BME280;68717;53.040;18.488;2023-09-19T00:05:21;100327.88;;;22.51;100.00
53619;BME280;68717;53.040;18.488;2023-09-19T00:05:37;100319.69;;;22.51;100.00
53619;BME280;68717;53.040;18.488;2023-09-19T00:05:51;100328.72;;;22.52;100.00
53619;BME280;68717;53.040;18.488;2023-09-19T00:06:03;100328.72;;;22.52;100.00
53619;BME280;68717;53.040;18.488;2023-09-19T00:06:20;100322.63;;;22.50;100.00
53619;BME280;68717;53.040;18.488;2023-09-19T00:06:32;100316.97;;;22.51;100.00
53619;BME280;68717;53.040;18.488;2023-09-19T00:06:45;100328.94;;;22.50;100.00
53619;BME280;68717;53.040;18.488;2023-09-19T00:06:59;100324.28;;;22.51;100.00
53619;BME280;68717;53.040;18.488;2023-09-19T00:07:14;100327.03;;;22.51;100.00
53619;BME280;68717;53.040;18.488;2023-09-19T00:07:28;100323.47;;;22.50;100.00
53619;BME280;68717;53.040;18.488;2023-09-19T00:07:41;100321.81;;;22.49;100.00
53619;BME280;68717;53.040;18.488;2023-09-19T00:07:54;100322.63;;;22.50;100.00
53619;BME280;68717;53.040;18.488;2023-09-19T00:08:07;100319.06;;;22.49;100.00
53619;BME280;68717;53.040;18.488;2023-09-19T00:08:21;100320.94;;;22.49;100.00
53619;BME280;68717;53.040;18.488;2023-09-19T00:08:37;100320.94;;;22.49;100.00
53619;BME280;68717;53.040;18.488;2023-09-19T00:08:49;100320.94;;;22.49;100.00
53619;BME280;68717;53.040;18.488;2023-09-19T00:09:03;100326.41;;;22.49;100.00
53619;BME280;68717;53.040;18.488;2023-09-19T00:09:16;100313.81;;;22.48;100.00
53619;BME280;68717;53.040;18.488;2023-09-19T00:09:28;100317.19;;;22.50;100.00
53619;BME280;68717;53.040;18.488;2023-09-19T00:09:41;100315.47;;;22.49;100.00
53619;BME280;68717;53.040;18.488;2023-09-19T00:09:57;100319.28;;;22.48;100.00
53619;BME280;68717;53.040;18.488;2023-09-19T00:10:10;100316.34;;;22.49;100.00
53619;BME280;68717;53.040;18.488;2023-09-19T00:10:23;100318.47;;;22.47;100.00
53619;BME280;68717;53.040;18.488;2023-09-19T00:10:39;100316.56;;;22.48;100.00
53619;BME280;68717;53.040;18.488;2023-09-19T00:10:54;100309.19;;;22.48;100.00
53619;BME280;68717;53.040;18.488;2023-09-19T00:11:07;100312.13;;;22.47;100.00
53619;BME280;68717;53.040;18.488;2023-09-19T00:11:20;100313.22;;;22.46;100.00
53619;BME280;68717;53.040;18.488;2023-09-19T00:11:33;100311.31;;;22.46;100.00
53619;BME280;68717;53.040;18.488;2023-09-19T00:11:49;100308.78;;;22.45;100.00
53619;BME280;68717;53.040;18.488;2023-09-19T00:12:03;100313.44;;;22.44;100.00
53619;BME280;68717;53.040;18.488;2023-09-19T00:12:16;100311.53;;;22.45;100.00
53619;BME280;68717;53.040;18.488;2023-09-19T00:12:30;100307.13;;;22.44;100.00
53619;BME280;68717;53.040;18.488;2023-09-19T00:12:44;100311.53;;;22.45;100.00
53619;BME280;68717;53.040;18.488;2023-09-19T00:12:58;100315.13;;;22.45;100.00
53619;BME280;68717;53.040;18.488;2023-09-19T00:13:11;100318.06;;;22.44;100.00
53619;BME280;68717;53.040;18.488;2023-09-19T00:13:27;100324.34;;;22.44;100.00
53619;BME280;68717;53.040;18.488;2023-09-19T00:13:41;100318.06;;;22.44;100.00
53619;BME280;68717;53.040;18.488;2023-09-19T00:13:54;100314.50;;;22.43;100.00
53619;BME280;68717;53.040;18.488;2023-09-19T00:14:07;100319.97;;;22.43;100.00
53619;BME280;68717;53.040;18.488;2023-09-19T00:14:24;100314.72;;;22.42;100.00
53619;BME280;68717;53.040;18.488;2023-09-19T00:14:37;100320.16;;;22.42;100.00
53619;BME280;68717;53.040;18.488;2023-09-19T00:14:51;100311.97;;;22.42;100.00
53619;BME280;68717;53.040;18.488;2023-09-19T00:15:06;100316.59;;;22.41;100.00
53619;BME280;68717;53.040;18.488;2023-09-19T00:15:19;100313.88;;;22.41;100.00
53619;BME280;68717;53.040;18.488;2023-09-19T00:15:36;100316.78;;;22.40;100.00
53619;BME280;68717;53.040;18.488;2023-09-19T00:15:49;100312.16;;;22.40;100.00
53619;BME280;68717;53.040;18.488;2023-09-19T00:16:08;100322.25;;;22.40;100.00
53619;BME280;68717;53.040;18.488;2023-09-19T00:16:21;100307.56;;;22.41;100.00
53619;BME280;68717;53.040;18.488;2023-09-19T00:16:34;100324.16;;;22.39;100.00
53619;BME280;68717;53.040;18.488;2023-09-19T00:16:48;100315.13;;;22.39;100.00
53619;BME280;68717;53.040;18.488;2023-09-19T00:17:02;100319.72;;;22.38;100.00
53619;BME280;68717;53.040;18.488;2023-09-19T00:17:20;100309.66;;;22.39;100.00
53619;BME280;68717;53.040;18.488;2023-09-19T00:17:33;100310.06;;;22.42;100.00
53619;BME280;68717;53.040;18.488;2023-09-19T00:17:47;100311.94;;;22.48;100.00
53619;BME280;68717;53.040;18.488;2023-09-19T00:18:00;100317.59;;;22.47;100.00
53619;BME280;68717;53.040;18.488;2023-09-19T00:18:13;100318.66;;;22.46;100.00
53619;BME280;68717;53.040;18.488;2023-09-19T00:18:27;100312.59;;;22.44;100.00
53619;BME280;68717;53.040;18.488;2023-09-19T00:18:41;100317.44;;;22.42;100.00
53619;BME280;68717;53.040;18.488;2023-09-19T00:18:55;100313.66;;;22.43;100.00
53619;BME280;68717;53.040;18.488;2023-09-19T00:19:07;100318.25;;;22.42;100.00
53619;BME280;68717;53.040;18.488;2023-09-19T00:19:21;100314.72;;;22.42;100.00
53619;BME280;68717;53.040;18.488;2023-09-19T00:19:34;100313.00;;;22.41;100.00
53619;BME280;68717;53.040;18.488;2023-09-19T00:19:46;100315.97;;;22.39;100.00
53619;BME280;68717;53.040;18.488;2023-09-19T00:20:04;100311.31;;;22.40;100.00
53619;BME280;68717;53.040;18.488;2023-09-19T00:20:21;100315.97;;;22.39;100.00
53619;BME280;68717;53.040;18.488;2023-09-19T00:20:36;100314.28;;;22.38;100.00
53619;BME280;68717;53.040;18.488;2023-09-19T00:20:48;100313.44;;;22.37;100.00
53619;BME280;68717;53.040;18.488;2023-09-19T00:21:02;100313.44;;;22.37;100.00
53619;BME280;68717;53.040;18.488;2023-09-19T00:21:16;100314.28;;;22.38;100.00
53619;BME280;68717;53.040;18.488;2023-09-19T00:21:31;100319.97;;;22.36;100.00
53619;BME280;68717;53.040;18.488;2023-09-19T00:21:44;100315.56;;;22.35;100.00
53619;BME280;68717;53.040;18.488;2023-09-19T00:21:58;100318.53;;;22.34;100.00
53619;BME280;68717;53.040;18.488;2023-09-19T00:22:10;100314.09;;;22.33;100.00
53619;BME280;68717;53.040;18.488;2023-09-19T00:22:25;100317.03;;;22.31;100.00
53619;BME280;68717;53.040;18.488;2023-09-19T00:22:40;100318.94;;;22.31;100.00
53619;BME280;68717;53.040;18.488;2023-09-19T00:22:53;100321.69;;;22.31;100.00
53619;BME280;68717;53.040;18.488;2023-09-19T00:23:05;100325.47;;;22.30;100.00
53619;BME280;68717;53.040;18.488;2023-09-19T00:23:18;100320.22;;;22.28;100.00
53619;BME280;68717;53.040;18.488;2023-09-19T00:23:32;100318.34;;;22.29;100.00
53619;BME280;68717;53.040;18.488;2023-09-19T00:23:45;100325.69;;;22.28;100.00
53619;BME280;68717;53.040;18.488;2023-09-19T00:23:57;100326.53;;;22.29;100.00
53619;BME280;68717;53.040;18.488;2023-09-19T00:24:11;100319.41;;;22.28;100.00
53619;BME280;68717;53.040;18.488;2023-09-19T00:24:25;100324.00;;;22.27;100.00
53619;BME280;68717;53.040;18.488;2023-09-19T00:24:37;100324.00;;;22.27;100.00
53619;BME280;68717;53.040;18.488;2023-09-19T00:24:50;100322.34;;;22.26;100.00
53619;BME280;68717;53.040;18.488;2023-09-19T00:25:06;100319.63;;;22.26;100.00
53619;BME280;68717;53.040;18.488;2023-09-19T00:25:19;100321.50;;;22.26;100.00
53619;BME280;68717;53.040;18.488;2023-09-19T00:25:32;100322.34;;;22.26;100.00
53619;BME280;68717;53.040;18.488;2023-09-19T00:25:45;100323.16;;;22.27;100.00
53619;BME280;68717;53.040;18.488;2023-09-19T00:25:59;100319.63;;;22.26;100.00
53619;BME280;68717;53.040;18.488;2023-09-19T00:26:13;100316.88;;;22.26;100.00
53619;BME280;68717;53.040;18.488;2023-09-19T00:26:26;100323.16;;;22.27;100.00
53619;BME280;68717;53.040;18.488;2023-09-19T00:26:43;100313.06;;;22.27;100.00
53619;BME280;68717;53.040;18.488;2023-09-19T00:26:56;100315.81;;;22.27;100.00
53619;BME280;68717;53.040;18.488;2023-09-19T00:27:11;100313.94;;;22.28;100.00
53619;BME280;68717;53.040;18.488;2023-09-19T00:27:23;100323.16;;;22.27;100.00
53619;BME280;68717;53.040;18.488;2023-09-19T00:27:36;100308.47;;;22.28;100.00
53619;BME280;68717;53.040;18.488;2023-09-19T00:27:54;100313.94;;;22.28;100.00
53619;BME280;68717;53.040;18.488;2023-09-19T00:28:07;100321.06;;;22.29;100.00
53619;BME280;68717;53.040;18.488;2023-09-19T00:28:20;100317.50;;;22.28;100.00
53619;BME280;68717;53.040;18.488;2023-09-19T00:28:33;100316.66;;;22.28;100.00
53619;BME280;68717;53.040;18.488;2023-09-19T00:28:47;100317.50;;;22.28;100.00
53619;BME280;68717;53.040;18.488;2023-09-19T00:29:00;100310.34;;;22.27;100.00
53619;BME280;68717;53.040;18.488;2023-09-19T00:29:20;100318.34;;;22.29;100.00
53619;BME280;68717;53.040;18.488;2023-09-19T00:29:33;100318.34;;;22.29;100.00
53619;BME280;68717;53.040;18.488;2023-09-19T00:29:46;100322.75;;;22.30;100.00
53619;BME280;68717;53.040;18.488;2023-09-19T00:29:59;100316.44;;;22.29;100.00
53619;BME280;68717;53.040;18.488;2023-09-19T00:30:13;100322.97;;;22.28;100.00
53619;BME280;68717;53.040;18.488;2023-09-19T00:30:28;100327.34;;;22.29;100.00
53619;BME280;68717;53.040;18.488;2023-09-19T00:30:42;100317.28;;;22.30;100.00
53619;BME280;68717;53.040;18.488;2023-09-19T00:30:55;100325.47;;;22.30;100.00
53619;BME280;68717;53.040;18.488;2023-09-19T00:31:08;100329.03;;;22.30;100.00
53619;BME280;68717;53.040;18.488;2023-09-19T00:31:22;100321.69;;;22.31;100.00
53619;BME280;68717;53.040;18.488;2023-09-19T00:31:38;100319.16;;;22.29;100.00
53619;BME280;68717;53.040;18.488;2023-09-19T00:31:50;100318.13;;;22.30;100.00
53619;BME280;68717;53.040;18.488;2023-09-19T00:32:03;100322.50;;;22.31;100.00
53619;BME280;68717;53.040;18.488;2023-09-19T00:32:17;100319.78;;;22.31;100.00
53619;BME280;68717;53.040;18.488;2023-09-19T00:32:30;100317.03;;;22.31;100.00
53619;BME280;68717;53.040;18.488;2023-09-19T00:32:43;100319.78;;;22.31;100.00
53619;BME280;68717;53.040;18.488;2023-09-19T00:32:59;100325.03;;;22.33;100.00
53619;BME280;68717;53.040;18.488;2023-09-19T00:33:13;100324.19;;;22.32;100.00
53619;BME280;68717;53.040;18.488;2023-09-19T00:33:29;100317.91;;;22.32;100.00
53619;BME280;68717;53.040;18.488;2023-09-19T00:33:41;100319.78;;;22.31;100.00
53619;BME280;68717;53.040;18.488;2023-09-19T00:33:55;100321.47;;;22.32;100.00
53619;BME280;68717;53.040;18.488;2023-09-19T00:34:09;100320.63;;;22.32;100.00
53619;BME280;68717;53.040;18.488;2023-09-19T00:34:23;100321.47;;;22.32;100.00
53619;BME280;68717;53.040;18.488;2023-09-19T00:34:35;100326.25;;;22.37;100.00
53619;BME280;68717;53.040;18.488;2023-09-19T00:34:48;100323.94;;;22.41;100.00
53619;BME280;68717;53.040;18.488;2023-09-19T00:35:01;100316.97;;;22.45;100.00
53619;BME280;68717;53.040;18.488;2023-09-19T00:35:15;100318.06;;;22.44;100.00
53619;BME280;68717;53.040;18.488;2023-09-19T00:35:28;100312.59;;;22.44;100.00
53619;BME280;68717;53.040;18.488;2023-09-19T00:35:47;100320.16;;;22.42;100.00
53619;BME280;68717;53.040;18.488;2023-09-19T00:35:59;100315.75;;;22.41;100.00
53619;BME280;68717;53.040;18.488;2023-09-19T00:36:14;100316.78;;;22.40;100.00
53619;BME280;68717;53.040;18.488;2023-09-19T00:36:27;100315.97;;;22.39;100.00
53619;BME280;68717;53.040;18.488;2023-09-19T00:36:40;100318.91;;;22.37;100.00
53619;BME280;68717;53.040;18.488;2023-09-19T00:36:52;100316.16;;;22.37;100.00
53619;BME280;68717;53.040;18.488;2023-09-19T00:37:05;100318.91;;;22.37;100.00
53619;BME280;68717;53.040;18.488;2023-09-19T00:37:19;100316.16;;;22.37;100.00
53619;BME280;68717;53.040;18.488;2023-09-19T00:37:32;100321.84;;;22.36;100.00
53619;BME280;68717;53.040;18.488;2023-09-19T00:37:44;100321.00;;;22.35;100.00
53619;BME280;68717;53.040;18.488;2023-09-19T00:37:57;100318.28;;;22.35;100.00
53619;BME280;68717;53.040;18.488;2023-09-19T00:38:10;100324.81;;;22.34;100.00
53619;BME280;68717;53.040;18.488;2023-09-19T00:38:24;100319.34;;;22.34;100.00
53619;BME280;68717;53.040;18.488;2023-09-19T00:38:39;100314.94;;;22.33;100.00
53619;BME280;68717;53.040;18.488;2023-09-19T00:38:53;100319.34;;;22.34;100.00
53619;BME280;68717;53.040;18.488;2023-09-19T00:39:06;100321.25;;;22.34;100.00
53619;BME280;68717;53.040;18.488;2023-09-19T00:39:20;100316.63;;;22.34;100.00
53619;BME280;68717;53.040;18.488;2023-09-19T00:39:34;100325.03;;;22.33;100.00
53619;BME280;68717;53.040;18.488;2023-09-19T00:39:46;100320.41;;;22.33;100.00
53619;BME280;68717;53.040;18.488;2023-09-19T00:39:59;100313.28;;;22.32;100.00
53619;BME280;68717;53.040;18.488;2023-09-19T00:40:13;100315.19;;;22.32;100.00
53619;BME280;68717;53.040;18.488;2023-09-19T00:40:27;100323.38;;;22.32;100.00
53619;BME280;68717;53.040;18.488;2023-09-19T00:40:43;100319.78;;;22.31;100.00
53619;BME280;68717;53.040;18.488;2023-09-19T00:40:56;100322.50;;;22.31;100.00
53619;BME280;68717;53.040;18.488;2023-09-19T00:41:12;100320.03;;;22.30;100.00
53619;BME280;68717;53.040;18.488;2023-09-19T00:41:25;100312.66;;;22.30;100.00
53619;BME280;68717;53.040;18.488;2023-09-19T00:41:38;100318.13;;;22.30;100.00
53619;BME280;68717;53.040;18.488;2023-09-19T00:41:50;100312.88;;;22.29;100.00
53619;BME280;68717;53.040;18.488;2023-09-19T00:42:03;100324.63;;;22.29;100.00
53619;BME280;68717;53.040;18.488;2023-09-19T00:42:18;100317.28;;;22.30;100.00
53619;BME280;68717;53.040;18.488;2023-09-19T00:42:33;100312.88;;;22.29;100.00
53619;BME280;68717;53.040;18.488;2023-09-19T00:42:50;100314.78;;;22.28;100.00
53619;BME280;68717;53.040;18.488;2023-09-19T00:43:03;100316.44;;;22.29;100.00
53619;BME280;68717;53.040;18.488;2023-09-19T00:43:15;100322.97;;;22.28;100.00
53619;BME280;68717;53.040;18.488;2023-09-19T00:43:29;100312.88;;;22.29;100.00
53619;BME280;68717;53.040;18.488;2023-09-19T00:43:41;100313.69;;;22.29;100.00
53619;BME280;68717;53.040;18.488;2023-09-19T00:43:54;100316.66;;;22.28;100.00
53619;BME280;68717;53.040;18.488;2023-09-19T00:44:07;100320.22;;;22.28;100.00
53619;BME280;68717;53.040;18.488;2023-09-19T00:44:22;100314.78;;;22.28;100.00
53619;BME280;68717;53.040;18.488;2023-09-19T00:44:35;100315.81;;;22.27;100.00
53619;BME280;68717;53.040;18.488;2023-09-19T00:44:49;100313.06;;;22.27;100.00
53619;BME280;68717;53.040;18.488;2023-09-19T00:45:04;100313.06;;;22.27;100.00
53619;BME280;68717;53.040;18.488;2023-09-19T00:45:17;100315.81;;;22.27;100.00
53619;BME280;68717;53.040;18.488;2023-09-19T00:45:33;100320.22;;;22.28;100.00
53619;BME280;68717;53.040;18.488;2023-09-19T00:45:50;100318.34;;;22.29;100.00
53619;BME280;68717;53.040;18.488;2023-09-19T00:46:06;100317.50;;;22.28;100.00
53619;BME280;68717;53.040;18.488;2023-09-19T00:46:21;100311.22;;;22.28;100.00
53619;BME280;68717;53.040;18.488;2023-09-19T00:46:34;100313.94;;;22.28;100.00
53619;BME280;68717;53.040;18.488;2023-09-19T00:46:47;100306.78;;;22.27;100.00
53619;BME280;68717;53.040;18.488;2023-09-19T00:47:02;100314.16;;;22.26;100.00
53619;BME280;68717;53.040;18.488;2023-09-19T00:47:15;100311.41;;;22.26;100.00
53619;BME280;68717;53.040;18.488;2023-09-19T00:47:30;100316.88;;;22.26;100.00
53619;BME280;68717;53.040;18.488;2023-09-19T00:47:44;100309.53;;;22.27;100.00
53619;BME280;68717;53.040;18.488;2023-09-19T00:48:01;100314.16;;;22.26;100.00
53619;BME280;68717;53.040;18.488;2023-09-19T00:48:16;100305.97;;;22.26;100.00
53619;BME280;68717;53.040;18.488;2023-09-19T00:48:31;100310.59;;;22.26;100.00
53619;BME280;68717;53.040;18.488;2023-09-19T00:48:45;100325.28;;;22.25;100.00
53619;BME280;68717;53.040;18.488;2023-09-19T00:48:58;100314.16;;;22.26;100.00
53619;BME280;68717;53.040;18.488;2023-09-19T00:49:11;100310.59;;;22.26;100.00
53619;BME280;68717;53.040;18.488;2023-09-19T00:49:25;100322.34;;;22.26;100.00
53619;BME280;68717;53.040;18.488;2023-09-19T00:49:38;100315.22;;;22.25;100.00
53619;BME280;68717;53.040;18.488;2023-09-19T00:49:52;100319.63;;;22.26;100.00
53619;BME280;68717;53.040;18.488;2023-09-19T00:50:06;100314.34;;;22.25;100.00
53619;BME280;68717;53.040;18.488;2023-09-19T00:50:23;100319.81;;;22.25;100.00
53619;BME280;68717;53.040;18.488;2023-09-19T00:50:36;100307.25;;;22.24;100.00
53619;BME280;68717;53.040;18.488;2023-09-19T00:50:49;100310.81;;;22.24;100.00
53619;BME280;68717;53.040;18.488;2023-09-19T00:51:04;100313.31;;;22.26;100.00
53619;BME280;68717;53.040;18.488;2023-09-19T00:51:17;100313.53;;;22.24;100.00
53619;BME280;68717;53.040;18.488;2023-09-19T00:51:31;100319.00;;;22.24;100.00
53619;BME280;68717;53.040;18.488;2023-09-19T00:51:44;100315.44;;;22.24;100.00
53619;BME280;68717;53.040;18.488;2023-09-19T00:51:59;100314.59;;;22.23;100.00
53619;BME280;68717;53.040;18.488;2023-09-19T00:52:12;100304.72;;;22.22;100.00
53619;BME280;68717;53.040;18.488;2023-09-19T00:52:25;100303.06;;;22.21;100.00
53619;BME280;68717;53.040;18.488;2023-09-19T00:52:40;100309.56;;;22.20;100.00
53619;BME280;68717;53.040;18.488;2023-09-19T00:52:55;100312.28;;;22.20;100.00
53619;BME280;68717;53.040;18.488;2023-09-19T00:53:08;100311.47;;;22.20;100.00
53619;BME280;68717;53.040;18.488;2023-09-19T00:53:23;100311.47;;;22.20;100.00
53619;BME280;68717;53.040;18.488;2023-09-19T00:53:38;100311.69;;;22.18;100.00
53619;BME280;68717;53.040;18.488;2023-09-19T00:53:52;100308.94;;;22.18;100.00
53619;BME280;68717;53.040;18.488;2023-09-19T00:54:05;100302.66;;;22.17;100.00
53619;BME280;68717;53.040;18.488;2023-09-19T00:54:20;100298.03;;;22.18;100.00
53619;BME280;68717;53.040;18.488;2023-09-19T00:54:33;100301.59;;;22.19;100.00
53619;BME280;68717;53.040;18.488;2023-09-19T00:54:48;100298.03;;;22.18;100.00
53619;BME280;68717;53.040;18.488;2023-09-19T00:55:00;100307.91;;;22.19;100.00
53619;BME280;68717;53.040;18.488;2023-09-19T00:55:16;100309.78;;;22.19;100.00
53619;BME280;68717;53.040;18.488;2023-09-19T00:55:32;100301.00;;;22.16;100.00
53619;BME280;68717;53.040;18.488;2023-09-19T00:55:45;100308.31;;;22.16;100.00
53619;BME280;68717;53.040;18.488;2023-09-19T00:55:58;100306.47;;;22.16;100.00
53619;BME280;68717;53.040;18.488;2023-09-19T00:56:12;100305.59;;;22.16;100.00
53619;BME280;68717;53.040;18.488;2023-09-19T00:56:26;100311.06;;;22.16;100.00
53619;BME280;68717;53.040;18.488;2023-09-19T00:56:39;100303.94;;;22.15;100.00
53619;BME280;68717;53.040;18.488;2023-09-19T00:56:52;100314.84;;;22.15;100.00
53619;BME280;68717;53.040;18.488;2023-09-19T00:57:07;100303.09;;;22.14;100.00
53619;BME280;68717;53.040;18.488;2023-09-19T00:57:20;100306.88;;;22.13;100.00
53619;BME280;68717;53.040;18.488;2023-09-19T00:57:36;100304.97;;;22.14;100.00
53619;BME280;68717;53.040;18.488;2023-09-19T00:57:50;100310.44;;;22.14;100.00
53619;BME280;68717;53.040;18.488;2023-09-19T00:58:05;100306.88;;;22.13;100.00
53619;BME280;68717;53.040;18.488;2023-09-19T00:58:19;100309.59;;;22.13;100.00
53619;BME280;68717;53.040;18.488;2023-09-19T00:58:33;100308.78;;;22.13;100.00
53619;BME280;68717;53.040;18.488;2023-09-19T00:58:47;100311.50;;;22.13;100.00
53619;BME280;68717;53.040;18.488;2023-09-19T00:59:01;100309.59;;;22.13;100.00
53619;BME280;68717;53.040;18.488;2023-09-19T00:59:14;100315.06;;;22.13;100.00
53619;BME280;68717;53.040;18.488;2023-09-19T00:59:27;100311.50;;;22.13;100.00
53619;BME280;68717;53.040;18.488;2023-09-19T00:59:39;100311.50;;;22.13;100.00
53619;BME280;68717;53.040;18.488;2023-09-19T00:59:53;100314.25;;;22.13;100.00
53619;BME280;68717;53.040;18.488;2023-09-19T01:00:09;100312.53;;;22.12;100.00
53619;BME280;68717;53.040;18.488;2023-09-19T01:00:24;100309.81;;;22.12;100.00
53619;BME280;68717;53.040;18.488;2023-09-19T01:00:37;100305.22;;;22.12;100.00
53619;BME280;68717;53.040;18.488;2023-09-19T01:00:50;100308.97;;;22.11;100.00
53619;BME280;68717;53.040;18.488;2023-09-19T01:01:04;100306.25;;;22.11;100.00
53619;BME280;68717;53.040;18.488;2023-09-19T01:01:20;100315.28;;;22.12;100.00
53619;BME280;68717;53.040;18.488;2023-09-19T01:01:33;100307.09;;;22.12;100.00
53619;BME280;68717;53.040;18.488;2023-09-19T01:01:46;100309.81;;;22.12;100.00
53619;BME280;68717;53.040;18.488;2023-09-19T01:02:02;100308.78;;;22.13;100.00
53619;BME280;68717;53.040;18.488;2023-09-19T01:02:16;100307.94;;;22.12;100.00
53619;BME280;68717;53.040;18.488;2023-09-19T01:02:29;100311.72;;;22.11;100.00
53619;BME280;68717;53.040;18.488;2023-09-19T01:02:42;100311.72;;;22.11;100.00
53619;BME280;68717;53.040;18.488;2023-09-19T01:02:56;100309.81;;;22.12;100.00
53619;BME280;68717;53.040;18.488;2023-09-19T01:03:09;100307.94;;;22.12;100.00
53619;BME280;68717;53.040;18.488;2023-09-19T01:03:22;100307.31;;;22.10;100.00
53619;BME280;68717;53.040;18.488;2023-09-19T01:03:36;100306.47;;;22.10;100.00
53619;BME280;68717;53.040;18.488;2023-09-19T01:03:50;100315.72;;;22.09;100.00
53619;BME280;68717;53.040;18.488;2023-09-19T01:04:04;100303.97;;;22.08;100.00
53619;BME280;68717;53.040;18.488;2023-09-19T01:04:17;100308.59;;;22.08;100.00
53619;BME280;68717;53.040;18.488;2023-09-19T01:04:30;100306.91;;;22.07;100.00
53619;BME280;68717;53.040;18.488;2023-09-19T01:04:44;100303.16;;;22.08;100.00
53619;BME280;68717;53.040;18.488;2023-09-19T01:04:57;100315.09;;;22.07;100.00
53619;BME280;68717;53.040;18.488;2023-09-19T01:05:11;100304.19;;;22.07;100.00
53619;BME280;68717;53.040;18.488;2023-09-19T01:05:24;100306.09;;;22.06;100.00
53619;BME280;68717;53.040;18.488;2023-09-19T01:05:38;100311.53;;;22.06;100.00
53619;BME280;68717;53.040;18.488;2023-09-19T01:05:50;100303.34;;;22.06;100.00
53619;BME280;68717;53.040;18.488;2023-09-19T01:06:04;100307.13;;;22.05;100.00
53619;BME280;68717;53.040;18.488;2023-09-19T01:06:17;100304.41;;;22.05;100.00
53619;BME280;68717;53.040;18.488;2023-09-19T01:06:30;100305.25;;;22.06;100.00
53619;BME280;68717;53.040;18.488;2023-09-19T01:06:43;100303.56;;;22.05;100.00
53619;BME280;68717;53.040;18.488;2023-09-19T01:06:57;100298.09;;;22.05;100.00
53619;BME280;68717;53.040;18.488;2023-09-19T01:07:10;100303.56;;;22.05;100.00
53619;BME280;68717;53.040;18.488;2023-09-19T01:07:23;100303.56;;;22.05;100.00
53619;BME280;68717;53.040;18.488;2023-09-19T01:07:37;100303.56;;;22.05;100.00
53619;BME280;68717;53.040;18.488;2023-09-19T01:07:53;100302.75;;;22.04;100.00
53619;BME280;68717;53.040;18.488;2023-09-19T01:08:05;100304.41;;;22.05;100.00
53619;BME280;68717;53.040;18.488;2023-09-19T01:08:19;100303.56;;;22.05;100.00
53619;BME280;68717;53.040;18.488;2023-09-19T01:08:31;100309.03;;;22.05;100.00
53619;BME280;68717;53.040;18.488;2023-09-19T01:08:44;100305.47;;;22.04;100.00
53619;BME280;68717;53.040;18.488;2023-09-19T01:08:57;100307.13;;;22.05;100.00
53619;BME280;68717;53.040;18.488;2023-09-19T01:09:09;100302.75;;;22.04;100.00
53619;BME280;68717;53.040;18.488;2023-09-19T01:09:23;100304.63;;;22.04;100.00
53619;BME280;68717;53.040;18.488;2023-09-19T01:09:36;100304.63;;;22.04;100.00
53619;BME280;68717;53.040;18.488;2023-09-19T01:09:51;100301.91;;;22.04;100.00
53619;BME280;68717;53.040;18.488;2023-09-19T01:10:06;100299.19;;;22.04;100.00
53619;BME280;68717;53.040;18.488;2023-09-19T01:10:23;100302.75;;;22.04;100.00
53619;BME280;68717;53.040;18.488;2023-09-19T01:10:38;100299.19;;;22.04;100.00
53619;BME280;68717;53.040;18.488;2023-09-19T01:11:03;100296.44;;;22.04;100.00
53619;BME280;68717;53.040;18.488;2023-09-19T01:11:28;100296.44;;;22.04;100.00
53619;BME280;68717;53.040;18.488;2023-09-19T01:11:48;100301.03;;;22.03;100.00